sensor_id;sensor_type;location;lat;lon;timestamp;temperature;humidity
11144;DHT22;5626;44.730;10.276;2022-07-23T00:01:00;27.90;63.60
11144;DHT22;5626;44.730;10.276;2022-07-23T00:03:30;27.90;63.60
11144;DHT22;5626;44.730;10.276;2022-07-23T00:06:00;27.80;61.90
11144;DHT22;5626;44.730;10.276;2022-07-23T00:08:30;27.70;62.00
11144;DHT22;5626;44.730;10.276;2022-07-23T00:11:00;27.70;62.20
11144;DHT22;5626;44.730;10.276;2022-07-23T00:13:31;27.60;62.50
11144;DHT22;5626;44.730;10.276;2022-07-23T00:16:01;27.60;62.00
11144;DHT22;5626;44.730;10.276;2022-07-23T00:18:31;27.50;61.70
11144;DHT22;5626;44.730;10.276;2022-07-23T00:21:01;27.50;62.20
11144;DHT22;5626;44.730;10.276;2022-07-23T00:23:30;27.40;61.10
11144;DHT22;5626;44.730;10.276;2022-07-23T00:26:00;27.40;60.80
11144;DHT22;5626;44.730;10.276;2022-07-23T00:28:31;27.30;61.10
11144;DHT22;5626;44.730;10.276;2022-07-23T00:31:00;27.20;61.40
11144;DHT22;5626;44.730;10.276;2022-07-23T00:33:30;27.00;61.10
11144;DHT22;5626;44.730;10.276;2022-07-23T00:36:00;27.00;60.70
11144;DHT22;5626;44.730;10.276;2022-07-23T00:38:30;27.00;61.00
11144;DHT22;5626;44.730;10.276;2022-07-23T00:40:59;27.00;60.40
11144;DHT22;5626;44.730;10.276;2022-07-23T00:43:30;27.00;59.80
11144;DHT22;5626;44.730;10.276;2022-07-23T00:46:00;27.00;59.80
11144;DHT22;5626;44.730;10.276;2022-07-23T00:48:30;27.00;60.40
11144;DHT22;5626;44.730;10.276;2022-07-23T00:50:59;26.90;61.20
11144;DHT22;5626;44.730;10.276;2022-07-23T00:53:29;26.80;62.20
11144;DHT22;5626;44.730;10.276;2022-07-23T00:55:59;26.80;62.30
11144;DHT22;5626;44.730;10.276;2022-07-23T00:58:30;26.70;62.40
11144;DHT22;5626;44.730;10.276;2022-07-23T01:01:00;26.70;62.40
11144;DHT22;5626;44.730;10.276;2022-07-23T01:03:30;26.70;62.00
11144;DHT22;5626;44.730;10.276;2022-07-23T01:06:00;26.70;61.90
11144;DHT22;5626;44.730;10.276;2022-07-23T01:08:30;26.70;61.50
11144;DHT22;5626;44.730;10.276;2022-07-23T01:10:59;26.70;61.60
11144;DHT22;5626;44.730;10.276;2022-07-23T01:13:30;26.60;61.70
11144;DHT22;5626;44.730;10.276;2022-07-23T01:16:00;26.60;60.90
11144;DHT22;5626;44.730;10.276;2022-07-23T01:18:29;26.60;60.90
11144;DHT22;5626;44.730;10.276;2022-07-23T01:20:59;26.60;60.70
11144;DHT22;5626;44.730;10.276;2022-07-23T01:23:30;26.60;60.40
11144;DHT22;5626;44.730;10.276;2022-07-23T01:26:00;26.50;60.50
11144;DHT22;5626;44.730;10.276;2022-07-23T01:28:30;26.50;60.70
11144;DHT22;5626;44.730;10.276;2022-07-23T01:31:00;26.50;60.60
11144;DHT22;5626;44.730;10.276;2022-07-23T01:33:34;26.50;60.50
11144;DHT22;5626;44.730;10.276;2022-07-23T01:36:04;26.50;60.20
11144;DHT22;5626;44.730;10.276;2022-07-23T01:38:35;26.60;60.20
11144;DHT22;5626;44.730;10.276;2022-07-23T01:41:06;26.70;60.10
11144;DHT22;5626;44.730;10.276;2022-07-23T01:43:35;26.70;59.90
11144;DHT22;5626;44.730;10.276;2022-07-23T01:46:06;26.70;60.00
11144;DHT22;5626;44.730;10.276;2022-07-23T01:48:41;26.70;59.70
11144;DHT22;5626;44.730;10.276;2022-07-23T01:51:35;26.60;59.10
11144;DHT22;5626;44.730;10.276;2022-07-23T01:54:11;26.70;59.10
11144;DHT22;5626;44.730;10.276;2022-07-23T01:56:40;26.70;58.60
11144;DHT22;5626;44.730;10.276;2022-07-23T01:59:12;26.70;58.40
11144;DHT22;5626;44.730;10.276;2022-07-23T02:01:41;26.70;58.30
11144;DHT22;5626;44.730;10.276;2022-07-23T02:04:11;26.70;58.20
11144;DHT22;5626;44.730;10.276;2022-07-23T02:06:41;26.70;58.10
11144;DHT22;5626;44.730;10.276;2022-07-23T02:09:12;26.70;58.10
11144;DHT22;5626;44.730;10.276;2022-07-23T02:11:42;26.70;57.60
11144;DHT22;5626;44.730;10.276;2022-07-23T02:14:11;26.70;57.60
11144;DHT22;5626;44.730;10.276;2022-07-23T02:16:41;26.70;57.10
11144;DHT22;5626;44.730;10.276;2022-07-23T02:19:10;26.60;56.80
11144;DHT22;5626;44.730;10.276;2022-07-23T02:21:40;26.50;56.50
11144;DHT22;5626;44.730;10.276;2022-07-23T02:24:12;26.50;57.40
11144;DHT22;5626;44.730;10.276;2022-07-23T02:26:42;26.40;58.00
11144;DHT22;5626;44.730;10.276;2022-07-23T02:29:12;26.40;59.00
11144;DHT22;5626;44.730;10.276;2022-07-23T02:31:42;26.30;60.40
11144;DHT22;5626;44.730;10.276;2022-07-23T02:34:12;26.30;61.00
11144;DHT22;5626;44.730;10.276;2022-07-23T02:36:42;26.30;61.50
11144;DHT22;5626;44.730;10.276;2022-07-23T02:39:13;26.40;61.60
11144;DHT22;5626;44.730;10.276;2022-07-23T02:41:44;26.40;61.60
11144;DHT22;5626;44.730;10.276;2022-07-23T02:44:13;26.50;60.60
11144;DHT22;5626;44.730;10.276;2022-07-23T02:46:47;26.60;60.30
11144;DHT22;5626;44.730;10.276;2022-07-23T02:49:18;26.60;59.80
11144;DHT22;5626;44.730;10.276;2022-07-23T02:51:49;26.70;59.30
11144;DHT22;5626;44.730;10.276;2022-07-23T02:54:20;26.80;59.00
11144;DHT22;5626;44.730;10.276;2022-07-23T02:56:52;26.80;58.30
11144;DHT22;5626;44.730;10.276;2022-07-23T02:59:21;26.80;57.80
11144;DHT22;5626;44.730;10.276;2022-07-23T03:01:51;26.80;57.70
11144;DHT22;5626;44.730;10.276;2022-07-23T03:04:20;26.90;57.40
11144;DHT22;5626;44.730;10.276;2022-07-23T03:06:50;26.90;56.90
11144;DHT22;5626;44.730;10.276;2022-07-23T03:09:21;26.90;56.40
11144;DHT22;5626;44.730;10.276;2022-07-23T03:11:52;27.00;56.00
11144;DHT22;5626;44.730;10.276;2022-07-23T03:14:22;27.10;54.70
11144;DHT22;5626;44.730;10.276;2022-07-23T03:16:51;27.10;53.50
11144;DHT22;5626;44.730;10.276;2022-07-23T03:19:22;27.20;54.90
11144;DHT22;5626;44.730;10.276;2022-07-23T03:21:52;27.20;55.30
11144;DHT22;5626;44.730;10.276;2022-07-23T03:24:23;27.20;56.50
11144;DHT22;5626;44.730;10.276;2022-07-23T03:27:14;27.10;56.60
11144;DHT22;5626;44.730;10.276;2022-07-23T03:29:44;27.10;56.70
11144;DHT22;5626;44.730;10.276;2022-07-23T03:32:14;27.10;56.60
11144;DHT22;5626;44.730;10.276;2022-07-23T03:34:44;27.00;56.80
11144;DHT22;5626;44.730;10.276;2022-07-23T03:37:14;27.00;55.90
11144;DHT22;5626;44.730;10.276;2022-07-23T03:39:45;27.00;56.20
11144;DHT22;5626;44.730;10.276;2022-07-23T03:42:15;27.00;55.50
11144;DHT22;5626;44.730;10.276;2022-07-23T03:44:46;27.00;54.60
11144;DHT22;5626;44.730;10.276;2022-07-23T03:47:16;27.00;54.20
11144;DHT22;5626;44.730;10.276;2022-07-23T03:49:49;27.10;53.90
11144;DHT22;5626;44.730;10.276;2022-07-23T03:52:19;27.10;54.10
11144;DHT22;5626;44.730;10.276;2022-07-23T03:54:50;27.10;54.30
11144;DHT22;5626;44.730;10.276;2022-07-23T03:57:20;27.20;54.20
11144;DHT22;5626;44.730;10.276;2022-07-23T03:59:49;27.30;54.10
11144;DHT22;5626;44.730;10.276;2022-07-23T04:02:19;27.30;53.90
11144;DHT22;5626;44.730;10.276;2022-07-23T04:04:49;27.30;53.50
11144;DHT22;5626;44.730;10.276;2022-07-23T04:07:18;27.40;53.80
11144;DHT22;5626;44.730;10.276;2022-07-23T04:09:49;27.40;53.40
11144;DHT22;5626;44.730;10.276;2022-07-23T04:12:19;27.30;54.40
11144;DHT22;5626;44.730;10.276;2022-07-23T04:14:49;27.20;54.20
11144;DHT22;5626;44.730;10.276;2022-07-23T04:17:18;27.10;54.30
11144;DHT22;5626;44.730;10.276;2022-07-23T04:19:48;27.10;54.70
11144;DHT22;5626;44.730;10.276;2022-07-23T04:22:22;27.00;54.50
11144;DHT22;5626;44.730;10.276;2022-07-23T04:24:53;27.00;55.00
11144;DHT22;5626;44.730;10.276;2022-07-23T04:27:22;27.00;54.60
11144;DHT22;5626;44.730;10.276;2022-07-23T04:29:52;27.00;54.60
11144;DHT22;5626;44.730;10.276;2022-07-23T04:32:21;27.00;54.60
11144;DHT22;5626;44.730;10.276;2022-07-23T04:34:52;27.00;53.90
11144;DHT22;5626;44.730;10.276;2022-07-23T04:37:22;27.00;54.00
11144;DHT22;5626;44.730;10.276;2022-07-23T04:39:53;27.10;54.90
11144;DHT22;5626;44.730;10.276;2022-07-23T04:42:25;27.10;55.00
11144;DHT22;5626;44.730;10.276;2022-07-23T04:44:54;27.10;54.80
11144;DHT22;5626;44.730;10.276;2022-07-23T04:47:24;27.10;54.70
11144;DHT22;5626;44.730;10.276;2022-07-23T04:49:53;27.10;54.70
11144;DHT22;5626;44.730;10.276;2022-07-23T04:52:23;27.20;54.60
11144;DHT22;5626;44.730;10.276;2022-07-23T04:54:54;27.20;54.40
11144;DHT22;5626;44.730;10.276;2022-07-23T04:57:24;27.40;54.30
11144;DHT22;5626;44.730;10.276;2022-07-23T04:59:54;27.50;53.90
11144;DHT22;5626;44.730;10.276;2022-07-23T05:02:25;27.60;54.40
11144;DHT22;5626;44.730;10.276;2022-07-23T05:04:55;27.70;53.30
11144;DHT22;5626;44.730;10.276;2022-07-23T05:07:25;27.80;53.40
11144;DHT22;5626;44.730;10.276;2022-07-23T05:09:57;27.90;53.00
11144;DHT22;5626;44.730;10.276;2022-07-23T05:12:26;28.00;52.80
11144;DHT22;5626;44.730;10.276;2022-07-23T05:14:57;28.10;52.90
11144;DHT22;5626;44.730;10.276;2022-07-23T05:17:27;28.20;52.70
11144;DHT22;5626;44.730;10.276;2022-07-23T05:19:57;28.30;54.50
11144;DHT22;5626;44.730;10.276;2022-07-23T05:22:28;28.40;56.10
11144;DHT22;5626;44.730;10.276;2022-07-23T05:24:59;28.40;54.70
11144;DHT22;5626;44.730;10.276;2022-07-23T05:27:28;28.60;53.60
11144;DHT22;5626;44.730;10.276;2022-07-23T05:29:59;28.60;52.20
11144;DHT22;5626;44.730;10.276;2022-07-23T05:32:31;28.70;52.70
11144;DHT22;5626;44.730;10.276;2022-07-23T05:35:11;28.90;53.00
11144;DHT22;5626;44.730;10.276;2022-07-23T05:37:46;28.90;54.50
11144;DHT22;5626;44.730;10.276;2022-07-23T05:40:18;29.00;55.80
11144;DHT22;5626;44.730;10.276;2022-07-23T05:42:47;29.10;56.10
11144;DHT22;5626;44.730;10.276;2022-07-23T05:45:17;29.10;54.40
11144;DHT22;5626;44.730;10.276;2022-07-23T05:47:48;29.30;52.10
11144;DHT22;5626;44.730;10.276;2022-07-23T05:50:27;29.50;52.80
11144;DHT22;5626;44.730;10.276;2022-07-23T05:53:02;29.70;52.20
11144;DHT22;5626;44.730;10.276;2022-07-23T05:55:53;29.90;51.40
11144;DHT22;5626;44.730;10.276;2022-07-23T05:58:23;30.00;51.40
11144;DHT22;5626;44.730;10.276;2022-07-23T06:00:53;30.10;51.10
11144;DHT22;5626;44.730;10.276;2022-07-23T06:03:23;30.20;50.60
11144;DHT22;5626;44.730;10.276;2022-07-23T06:05:52;30.20;50.50
11144;DHT22;5626;44.730;10.276;2022-07-23T06:08:22;30.40;50.50
11144;DHT22;5626;44.730;10.276;2022-07-23T06:10:54;30.40;50.80
11144;DHT22;5626;44.730;10.276;2022-07-23T06:13:24;30.40;51.20
11144;DHT22;5626;44.730;10.276;2022-07-23T06:15:54;30.40;50.20
11144;DHT22;5626;44.730;10.276;2022-07-23T06:18:24;30.50;50.50
11144;DHT22;5626;44.730;10.276;2022-07-23T06:20:54;30.50;49.70
11144;DHT22;5626;44.730;10.276;2022-07-23T06:23:27;30.60;49.10
11144;DHT22;5626;44.730;10.276;2022-07-23T06:25:58;30.70;49.10
11144;DHT22;5626;44.730;10.276;2022-07-23T06:28:27;30.80;50.10
11144;DHT22;5626;44.730;10.276;2022-07-23T06:30:57;30.90;49.20
11144;DHT22;5626;44.730;10.276;2022-07-23T06:33:26;30.90;48.70
11144;DHT22;5626;44.730;10.276;2022-07-23T06:35:56;30.90;47.70
11144;DHT22;5626;44.730;10.276;2022-07-23T06:38:25;30.90;47.10
11144;DHT22;5626;44.730;10.276;2022-07-23T06:40:58;30.90;47.20
11144;DHT22;5626;44.730;10.276;2022-07-23T06:43:30;31.00;46.90
11144;DHT22;5626;44.730;10.276;2022-07-23T06:46:00;31.00;46.90
11144;DHT22;5626;44.730;10.276;2022-07-23T06:48:30;31.00;47.20
11144;DHT22;5626;44.730;10.276;2022-07-23T06:51:00;31.10;47.30
11144;DHT22;5626;44.730;10.276;2022-07-23T06:53:30;31.20;48.50
11144;DHT22;5626;44.730;10.276;2022-07-23T06:56:01;31.20;47.30
11144;DHT22;5626;44.730;10.276;2022-07-23T06:58:33;31.20;47.50
11144;DHT22;5626;44.730;10.276;2022-07-23T07:01:03;31.30;47.20
11144;DHT22;5626;44.730;10.276;2022-07-23T07:03:32;31.40;47.20
11144;DHT22;5626;44.730;10.276;2022-07-23T07:06:02;31.40;47.70
11144;DHT22;5626;44.730;10.276;2022-07-23T07:08:31;31.50;48.00
11144;DHT22;5626;44.730;10.276;2022-07-23T07:11:03;31.60;47.40
11144;DHT22;5626;44.730;10.276;2022-07-23T07:13:33;31.70;47.30
11144;DHT22;5626;44.730;10.276;2022-07-23T07:16:03;31.80;46.90
11144;DHT22;5626;44.730;10.276;2022-07-23T07:18:32;31.90;47.60
11144;DHT22;5626;44.730;10.276;2022-07-23T07:21:02;31.90;47.10
11144;DHT22;5626;44.730;10.276;2022-07-23T07:23:32;32.10;46.70
11144;DHT22;5626;44.730;10.276;2022-07-23T07:26:03;32.20;46.70
11144;DHT22;5626;44.730;10.276;2022-07-23T07:28:33;32.30;46.80
11144;DHT22;5626;44.730;10.276;2022-07-23T07:31:03;32.40;46.40
11144;DHT22;5626;44.730;10.276;2022-07-23T07:33:32;32.50;47.30
11144;DHT22;5626;44.730;10.276;2022-07-23T07:36:02;32.60;46.60
11144;DHT22;5626;44.730;10.276;2022-07-23T07:38:32;32.70;46.10
11144;DHT22;5626;44.730;10.276;2022-07-23T07:41:03;32.90;46.90
11144;DHT22;5626;44.730;10.276;2022-07-23T07:43:33;33.00;45.90
11144;DHT22;5626;44.730;10.276;2022-07-23T07:46:03;33.10;46.10
11144;DHT22;5626;44.730;10.276;2022-07-23T07:48:32;33.20;46.90
11144;DHT22;5626;44.730;10.276;2022-07-23T07:51:02;33.30;47.60
11144;DHT22;5626;44.730;10.276;2022-07-23T07:53:32;33.40;47.80
11144;DHT22;5626;44.730;10.276;2022-07-23T07:56:04;33.60;48.30
11144;DHT22;5626;44.730;10.276;2022-07-23T07:58:34;33.80;48.20
11144;DHT22;5626;44.730;10.276;2022-07-23T08:01:04;33.90;47.50
11144;DHT22;5626;44.730;10.276;2022-07-23T08:03:34;34.00;47.30
11144;DHT22;5626;44.730;10.276;2022-07-23T08:06:04;34.10;47.40
11144;DHT22;5626;44.730;10.276;2022-07-23T08:08:35;34.10;47.20
11144;DHT22;5626;44.730;10.276;2022-07-23T08:11:06;34.20;47.70
11144;DHT22;5626;44.730;10.276;2022-07-23T08:13:35;34.20;46.50
11144;DHT22;5626;44.730;10.276;2022-07-23T08:16:05;34.30;47.00
11144;DHT22;5626;44.730;10.276;2022-07-23T08:18:35;34.40;46.20
11144;DHT22;5626;44.730;10.276;2022-07-23T08:21:04;34.40;46.60
11144;DHT22;5626;44.730;10.276;2022-07-23T08:23:34;34.40;48.10
11144;DHT22;5626;44.730;10.276;2022-07-23T08:26:05;34.40;48.20
11144;DHT22;5626;44.730;10.276;2022-07-23T08:28:35;34.40;48.50
11144;DHT22;5626;44.730;10.276;2022-07-23T08:31:05;34.50;48.20
11144;DHT22;5626;44.730;10.276;2022-07-23T08:33:35;34.40;48.80
11144;DHT22;5626;44.730;10.276;2022-07-23T08:36:05;34.40;48.90
11144;DHT22;5626;44.730;10.276;2022-07-23T08:38:35;34.40;48.80
11144;DHT22;5626;44.730;10.276;2022-07-23T08:41:07;34.50;48.90
11144;DHT22;5626;44.730;10.276;2022-07-23T08:43:37;34.60;49.10
11144;DHT22;5626;44.730;10.276;2022-07-23T08:46:08;34.60;49.50
11144;DHT22;5626;44.730;10.276;2022-07-23T08:48:38;34.70;49.30
11144;DHT22;5626;44.730;10.276;2022-07-23T08:51:08;34.70;48.80
11144;DHT22;5626;44.730;10.276;2022-07-23T08:53:38;34.80;48.80
11144;DHT22;5626;44.730;10.276;2022-07-23T08:56:10;34.80;47.70
11144;DHT22;5626;44.730;10.276;2022-07-23T08:58:40;34.90;47.30
11144;DHT22;5626;44.730;10.276;2022-07-23T09:01:10;34.90;47.40
11144;DHT22;5626;44.730;10.276;2022-07-23T09:03:40;34.90;47.90
11144;DHT22;5626;44.730;10.276;2022-07-23T09:06:13;35.00;47.60
11144;DHT22;5626;44.730;10.276;2022-07-23T09:08:43;35.20;47.60
11144;DHT22;5626;44.730;10.276;2022-07-23T09:11:17;35.30;48.20
11144;DHT22;5626;44.730;10.276;2022-07-23T09:13:49;35.40;48.80
11144;DHT22;5626;44.730;10.276;2022-07-23T09:16:26;35.40;48.80
11144;DHT22;5626;44.730;10.276;2022-07-23T09:18:58;35.40;49.10
11144;DHT22;5626;44.730;10.276;2022-07-23T09:21:29;35.50;48.50
11144;DHT22;5626;44.730;10.276;2022-07-23T09:24:00;35.40;48.70
11144;DHT22;5626;44.730;10.276;2022-07-23T09:26:36;35.50;48.70
11144;DHT22;5626;44.730;10.276;2022-07-23T09:29:09;35.50;50.00
11144;DHT22;5626;44.730;10.276;2022-07-23T09:31:44;35.60;49.80
11144;DHT22;5626;44.730;10.276;2022-07-23T09:34:17;35.60;50.40
11144;DHT22;5626;44.730;10.276;2022-07-23T09:36:48;35.60;50.00
11144;DHT22;5626;44.730;10.276;2022-07-23T09:39:25;35.70;49.30
11144;DHT22;5626;44.730;10.276;2022-07-23T09:41:57;35.70;48.90
11144;DHT22;5626;44.730;10.276;2022-07-23T09:44:27;35.80;49.30
11144;DHT22;5626;44.730;10.276;2022-07-23T09:47:00;35.90;49.80
11144;DHT22;5626;44.730;10.276;2022-07-23T09:49:30;36.00;51.60
11144;DHT22;5626;44.730;10.276;2022-07-23T09:52:00;36.00;50.90
11144;DHT22;5626;44.730;10.276;2022-07-23T09:54:33;36.10;51.20
11144;DHT22;5626;44.730;10.276;2022-07-23T09:57:07;36.10;50.00
11144;DHT22;5626;44.730;10.276;2022-07-23T09:59:43;36.20;49.70
11144;DHT22;5626;44.730;10.276;2022-07-23T10:02:14;36.20;49.30
11144;DHT22;5626;44.730;10.276;2022-07-23T10:05:05;36.30;49.60
11144;DHT22;5626;44.730;10.276;2022-07-23T10:07:58;36.30;48.70
11144;DHT22;5626;44.730;10.276;2022-07-23T10:10:55;36.40;48.60
11144;DHT22;5626;44.730;10.276;2022-07-23T10:13:44;36.40;47.80
11144;DHT22;5626;44.730;10.276;2022-07-23T10:16:27;36.50;48.40
11144;DHT22;5626;44.730;10.276;2022-07-23T10:18:57;36.60;47.60
11144;DHT22;5626;44.730;10.276;2022-07-23T10:21:34;36.70;47.30
11144;DHT22;5626;44.730;10.276;2022-07-23T10:24:15;36.80;47.20
11144;DHT22;5626;44.730;10.276;2022-07-23T10:26:52;36.90;46.90
11144;DHT22;5626;44.730;10.276;2022-07-23T10:29:37;36.90;46.30
11144;DHT22;5626;44.730;10.276;2022-07-23T10:32:17;36.90;46.20
11144;DHT22;5626;44.730;10.276;2022-07-23T10:34:55;37.00;46.00
11144;DHT22;5626;44.730;10.276;2022-07-23T10:37:32;37.00;46.40
11144;DHT22;5626;44.730;10.276;2022-07-23T10:40:12;37.10;46.20
11144;DHT22;5626;44.730;10.276;2022-07-23T10:42:42;37.20;46.90
11144;DHT22;5626;44.730;10.276;2022-07-23T10:45:28;37.30;46.80
11144;DHT22;5626;44.730;10.276;2022-07-23T10:48:23;37.40;45.90
11144;DHT22;5626;44.730;10.276;2022-07-23T10:51:08;37.40;45.30
11144;DHT22;5626;44.730;10.276;2022-07-23T10:53:56;37.40;45.10
11144;DHT22;5626;44.730;10.276;2022-07-23T10:57:04;37.50;45.90
11144;DHT22;5626;44.730;10.276;2022-07-23T11:00:20;37.50;46.20
11144;DHT22;5626;44.730;10.276;2022-07-23T11:02:53;37.60;45.60
11144;DHT22;5626;44.730;10.276;2022-07-23T11:05:25;37.70;45.30
11144;DHT22;5626;44.730;10.276;2022-07-23T11:08:16;37.70;45.00
11144;DHT22;5626;44.730;10.276;2022-07-23T11:10:50;37.70;44.00
11144;DHT22;5626;44.730;10.276;2022-07-23T11:13:28;37.80;43.90
11144;DHT22;5626;44.730;10.276;2022-07-23T11:16:25;37.80;43.80
11144;DHT22;5626;44.730;10.276;2022-07-23T11:18:59;37.90;44.10
11144;DHT22;5626;44.730;10.276;2022-07-23T11:21:56;38.10;44.70
11144;DHT22;5626;44.730;10.276;2022-07-23T11:24:26;38.20;44.10
11144;DHT22;5626;44.730;10.276;2022-07-23T11:27:01;38.20;43.30
11144;DHT22;5626;44.730;10.276;2022-07-23T11:29:48;38.20;43.60
11144;DHT22;5626;44.730;10.276;2022-07-23T11:32:41;38.20;43.30
11144;DHT22;5626;44.730;10.276;2022-07-23T11:35:24;38.10;44.10
11144;DHT22;5626;44.730;10.276;2022-07-23T11:38:04;38.10;44.80
11144;DHT22;5626;44.730;10.276;2022-07-23T11:40:34;38.10;44.40
11144;DHT22;5626;44.730;10.276;2022-07-23T11:43:06;38.20;43.80
11144;DHT22;5626;44.730;10.276;2022-07-23T11:45:37;38.20;43.20
11144;DHT22;5626;44.730;10.276;2022-07-23T11:48:09;38.30;43.10
11144;DHT22;5626;44.730;10.276;2022-07-23T11:50:40;38.20;43.40
11144;DHT22;5626;44.730;10.276;2022-07-23T11:53:10;38.20;43.40
11144;DHT22;5626;44.730;10.276;2022-07-23T11:55:40;38.20;44.40
11144;DHT22;5626;44.730;10.276;2022-07-23T11:58:10;38.20;44.00
11144;DHT22;5626;44.730;10.276;2022-07-23T12:00:41;38.20;42.60
11144;DHT22;5626;44.730;10.276;2022-07-23T12:03:11;38.10;43.60
11144;DHT22;5626;44.730;10.276;2022-07-23T12:05:42;38.10;44.40
11144;DHT22;5626;44.730;10.276;2022-07-23T12:08:12;38.10;44.50
11144;DHT22;5626;44.730;10.276;2022-07-23T12:10:43;38.20;44.40
11144;DHT22;5626;44.730;10.276;2022-07-23T12:13:14;38.30;43.80
11144;DHT22;5626;44.730;10.276;2022-07-23T12:15:47;38.40;44.50
11144;DHT22;5626;44.730;10.276;2022-07-23T12:18:19;38.40;40.40
11144;DHT22;5626;44.730;10.276;2022-07-23T12:20:53;38.40;39.10
11144;DHT22;5626;44.730;10.276;2022-07-23T12:23:25;38.40;37.80
11144;DHT22;5626;44.730;10.276;2022-07-23T12:25:55;38.30;38.10
11144;DHT22;5626;44.730;10.276;2022-07-23T12:28:31;38.30;38.20
11144;DHT22;5626;44.730;10.276;2022-07-23T12:31:02;38.30;38.30
11144;DHT22;5626;44.730;10.276;2022-07-23T12:33:33;38.30;38.00
11144;DHT22;5626;44.730;10.276;2022-07-23T12:36:06;38.40;38.10
11144;DHT22;5626;44.730;10.276;2022-07-23T12:38:38;38.40;37.80
11144;DHT22;5626;44.730;10.276;2022-07-23T12:41:09;38.30;38.60
11144;DHT22;5626;44.730;10.276;2022-07-23T12:43:41;38.20;39.20
11144;DHT22;5626;44.730;10.276;2022-07-23T12:46:13;38.20;39.30
11144;DHT22;5626;44.730;10.276;2022-07-23T12:48:51;38.30;39.40
11144;DHT22;5626;44.730;10.276;2022-07-23T12:51:24;38.40;39.40
11144;DHT22;5626;44.730;10.276;2022-07-23T12:53:56;38.40;38.50
11144;DHT22;5626;44.730;10.276;2022-07-23T12:56:28;38.50;39.70
11144;DHT22;5626;44.730;10.276;2022-07-23T12:59:04;38.40;39.50
11144;DHT22;5626;44.730;10.276;2022-07-23T13:01:36;38.50;39.90
11144;DHT22;5626;44.730;10.276;2022-07-23T13:04:08;38.50;39.70
11144;DHT22;5626;44.730;10.276;2022-07-23T13:06:44;38.60;40.10
11144;DHT22;5626;44.730;10.276;2022-07-23T13:09:15;38.70;39.30
11144;DHT22;5626;44.730;10.276;2022-07-23T13:11:46;38.80;39.40
11144;DHT22;5626;44.730;10.276;2022-07-23T13:14:17;38.80;39.00
11144;DHT22;5626;44.730;10.276;2022-07-23T13:16:48;38.80;38.80
11144;DHT22;5626;44.730;10.276;2022-07-23T13:19:19;38.90;39.40
11144;DHT22;5626;44.730;10.276;2022-07-23T13:21:51;38.90;40.00
11144;DHT22;5626;44.730;10.276;2022-07-23T13:24:21;39.00;39.90
11144;DHT22;5626;44.730;10.276;2022-07-23T13:26:51;39.00;38.70
11144;DHT22;5626;44.730;10.276;2022-07-23T13:29:21;38.90;39.30
11144;DHT22;5626;44.730;10.276;2022-07-23T13:31:51;38.80;40.10
11144;DHT22;5626;44.730;10.276;2022-07-23T13:34:20;38.80;40.40
11144;DHT22;5626;44.730;10.276;2022-07-23T13:36:52;38.80;40.90
11144;DHT22;5626;44.730;10.276;2022-07-23T13:39:22;38.90;41.40
11144;DHT22;5626;44.730;10.276;2022-07-23T13:41:51;39.00;41.20
11144;DHT22;5626;44.730;10.276;2022-07-23T13:44:21;39.10;41.00
11144;DHT22;5626;44.730;10.276;2022-07-23T13:46:51;39.20;41.30
11144;DHT22;5626;44.730;10.276;2022-07-23T13:49:20;39.40;41.10
11144;DHT22;5626;44.730;10.276;2022-07-23T13:51:55;39.50;40.90
11144;DHT22;5626;44.730;10.276;2022-07-23T13:54:26;39.50;41.10
11144;DHT22;5626;44.730;10.276;2022-07-23T13:56:56;39.40;40.80
11144;DHT22;5626;44.730;10.276;2022-07-23T13:59:26;39.10;40.70
11144;DHT22;5626;44.730;10.276;2022-07-23T14:01:56;38.70;41.00
11144;DHT22;5626;44.730;10.276;2022-07-23T14:04:46;38.30;41.20
11144;DHT22;5626;44.730;10.276;2022-07-23T14:07:17;37.70;41.40
11144;DHT22;5626;44.730;10.276;2022-07-23T14:09:47;37.60;41.90
11144;DHT22;5626;44.730;10.276;2022-07-23T14:12:17;37.70;43.50
11144;DHT22;5626;44.730;10.276;2022-07-23T14:14:46;37.90;43.20
11144;DHT22;5626;44.730;10.276;2022-07-23T14:17:16;38.00;42.80
11144;DHT22;5626;44.730;10.276;2022-07-23T14:19:46;38.10;42.30
11144;DHT22;5626;44.730;10.276;2022-07-23T14:22:18;38.20;41.50
11144;DHT22;5626;44.730;10.276;2022-07-23T14:24:48;38.10;41.80
11144;DHT22;5626;44.730;10.276;2022-07-23T14:27:18;38.20;41.10
11144;DHT22;5626;44.730;10.276;2022-07-23T14:29:48;38.40;41.30
11144;DHT22;5626;44.730;10.276;2022-07-23T14:32:18;38.40;40.10
11144;DHT22;5626;44.730;10.276;2022-07-23T14:34:48;38.30;39.50
11144;DHT22;5626;44.730;10.276;2022-07-23T14:37:20;38.20;40.00
11144;DHT22;5626;44.730;10.276;2022-07-23T14:39:50;38.30;41.00
11144;DHT22;5626;44.730;10.276;2022-07-23T14:42:20;38.50;41.30
11144;DHT22;5626;44.730;10.276;2022-07-23T14:44:50;38.60;40.80
11144;DHT22;5626;44.730;10.276;2022-07-23T14:47:21;38.10;41.60
11144;DHT22;5626;44.730;10.276;2022-07-23T14:49:51;38.20;42.10
11144;DHT22;5626;44.730;10.276;2022-07-23T14:52:24;38.00;41.80
11144;DHT22;5626;44.730;10.276;2022-07-23T14:54:55;37.60;41.80
11144;DHT22;5626;44.730;10.276;2022-07-23T14:57:25;37.50;41.30
11144;DHT22;5626;44.730;10.276;2022-07-23T14:59:55;37.50;40.80
11144;DHT22;5626;44.730;10.276;2022-07-23T15:02:25;37.30;41.00
11144;DHT22;5626;44.730;10.276;2022-07-23T15:04:55;37.30;40.80
11144;DHT22;5626;44.730;10.276;2022-07-23T15:07:31;37.30;40.70
11144;DHT22;5626;44.730;10.276;2022-07-23T15:10:01;37.20;41.10
11144;DHT22;5626;44.730;10.276;2022-07-23T15:12:31;36.90;41.40
11144;DHT22;5626;44.730;10.276;2022-07-23T15:15:00;36.80;41.60
11144;DHT22;5626;44.730;10.276;2022-07-23T15:17:31;36.80;41.90
11144;DHT22;5626;44.730;10.276;2022-07-23T15:20:01;36.60;41.60
11144;DHT22;5626;44.730;10.276;2022-07-23T15:22:33;36.50;41.60
11144;DHT22;5626;44.730;10.276;2022-07-23T15:25:03;36.50;41.60
11144;DHT22;5626;44.730;10.276;2022-07-23T15:27:33;36.50;41.30
11144;DHT22;5626;44.730;10.276;2022-07-23T15:30:06;36.40;41.40
11144;DHT22;5626;44.730;10.276;2022-07-23T15:32:36;36.30;41.70
11144;DHT22;5626;44.730;10.276;2022-07-23T15:35:07;36.20;41.50
11144;DHT22;5626;44.730;10.276;2022-07-23T15:37:38;36.10;41.60
11144;DHT22;5626;44.730;10.276;2022-07-23T15:40:09;36.20;40.90
11144;DHT22;5626;44.730;10.276;2022-07-23T15:42:39;36.20;40.60
11144;DHT22;5626;44.730;10.276;2022-07-23T15:45:09;36.30;41.10
11144;DHT22;5626;44.730;10.276;2022-07-23T15:47:40;36.30;41.80
11144;DHT22;5626;44.730;10.276;2022-07-23T15:50:10;36.20;40.50
11144;DHT22;5626;44.730;10.276;2022-07-23T15:52:41;36.10;41.40
11144;DHT22;5626;44.730;10.276;2022-07-23T15:55:11;36.10;41.80
11144;DHT22;5626;44.730;10.276;2022-07-23T15:57:41;36.20;41.50
11144;DHT22;5626;44.730;10.276;2022-07-23T16:00:11;36.30;41.00